sensor_id;sensor_type;location;lat;lon;timestamp;P1;durP1;ratioP1;P2;durP2;ratioP2
48765;SDS011;65794;51.836;5.002;2022-12-05T00:00:29;81.38;;;31.25;;
48765;SDS011;65794;51.836;5.002;2022-12-05T00:02:55;85.15;;;28.73;;
48765;SDS011;65794;51.836;5.002;2022-12-05T00:05:21;80.15;;;28.88;;
48765;SDS011;65794;51.836;5.002;2022-12-05T00:07:47;79.80;;;30.63;;
48765;SDS011;65794;51.836;5.002;2022-12-05T00:10:13;80.22;;;29.90;;
48765;SDS011;65794;51.836;5.002;2022-12-05T00:12:38;78.38;;;29.00;;
48765;SDS011;65794;51.836;5.002;2022-12-05T00:15:04;82.97;;;29.33;;
48765;SDS011;65794;51.836;5.002;2022-12-05T00:17:30;79.13;;;28.63;;
48765;SDS011;65794;51.836;5.002;2022-12-05T00:19:56;82.95;;;29.75;;
48765;SDS011;65794;51.836;5.002;2022-12-05T00:22:22;76.45;;;28.70;;
48765;SDS011;65794;51.836;5.002;2022-12-05T00:27:13;72.03;;;28.30;;
48765;SDS011;65794;51.836;5.002;2022-12-05T00:29:39;80.50;;;30.20;;
48765;SDS011;65794;51.836;5.002;2022-12-05T00:32:05;88.82;;;29.30;;
48765;SDS011;65794;51.836;5.002;2022-12-05T00:34:31;77.13;;;27.98;;
48765;SDS011;65794;51.836;5.002;2022-12-05T00:36:57;78.90;;;31.13;;
48765;SDS011;65794;51.836;5.002;2022-12-05T00:39:22;74.07;;;28.05;;
48765;SDS011;65794;51.836;5.002;2022-12-05T00:41:48;83.15;;;30.52;;
48765;SDS011;65794;51.836;5.002;2022-12-05T00:44:14;79.43;;;29.27;;
48765;SDS011;65794;51.836;5.002;2022-12-05T00:46:40;74.43;;;29.35;;
48765;SDS011;65794;51.836;5.002;2022-12-05T00:49:06;77.10;;;27.80;;
48765;SDS011;65794;51.836;5.002;2022-12-05T00:51:33;81.32;;;29.80;;
48765;SDS011;65794;51.836;5.002;2022-12-05T00:54:00;76.13;;;27.05;;
48765;SDS011;65794;51.836;5.002;2022-12-05T00:56:26;79.55;;;28.90;;
48765;SDS011;65794;51.836;5.002;2022-12-05T00:58:53;80.03;;;28.13;;
48765;SDS011;65794;51.836;5.002;2022-12-05T01:01:20;67.97;;;27.35;;
48765;SDS011;65794;51.836;5.002;2022-12-05T01:03:47;73.45;;;25.60;;
48765;SDS011;65794;51.836;5.002;2022-12-05T01:06:13;84.03;;;29.90;;
48765;SDS011;65794;51.836;5.002;2022-12-05T01:08:39;78.50;;;29.17;;
48765;SDS011;65794;51.836;5.002;2022-12-05T01:11:05;81.80;;;29.85;;
48765;SDS011;65794;51.836;5.002;2022-12-05T01:13:31;76.57;;;29.65;;
48765;SDS011;65794;51.836;5.002;2022-12-05T01:15:57;78.03;;;30.52;;
48765;SDS011;65794;51.836;5.002;2022-12-05T01:18:24;74.30;;;28.15;;
48765;SDS011;65794;51.836;5.002;2022-12-05T01:20:50;74.80;;;29.35;;
48765;SDS011;65794;51.836;5.002;2022-12-05T01:23:16;79.53;;;27.55;;
48765;SDS011;65794;51.836;5.002;2022-12-05T01:25:42;80.20;;;29.88;;
48765;SDS011;65794;51.836;5.002;2022-12-05T01:28:08;77.57;;;28.83;;
48765;SDS011;65794;51.836;5.002;2022-12-05T01:30:38;72.20;;;27.08;;
48765;SDS011;65794;51.836;5.002;2022-12-05T01:33:04;85.28;;;29.48;;
48765;SDS011;65794;51.836;5.002;2022-12-05T01:35:30;76.00;;;30.58;;
48765;SDS011;65794;51.836;5.002;2022-12-05T01:37:56;80.10;;;29.48;;
48765;SDS011;65794;51.836;5.002;2022-12-05T01:40:22;75.82;;;29.17;;
48765;SDS011;65794;51.836;5.002;2022-12-05T01:42:48;74.15;;;28.02;;
48765;SDS011;65794;51.836;5.002;2022-12-05T01:45:15;78.35;;;29.15;;
48765;SDS011;65794;51.836;5.002;2022-12-05T01:47:41;73.85;;;29.60;;
48765;SDS011;65794;51.836;5.002;2022-12-05T01:50:07;76.07;;;29.35;;
48765;SDS011;65794;51.836;5.002;2022-12-05T01:52:33;83.13;;;29.85;;
48765;SDS011;65794;51.836;5.002;2022-12-05T01:55:02;80.93;;;29.27;;
48765;SDS011;65794;51.836;5.002;2022-12-05T01:57:28;82.60;;;31.10;;
48765;SDS011;65794;51.836;5.002;2022-12-05T01:59:57;78.57;;;29.38;;
48765;SDS011;65794;51.836;5.002;2022-12-05T02:02:25;70.57;;;26.98;;
48765;SDS011;65794;51.836;5.002;2022-12-05T02:05:04;85.40;;;31.10;;
48765;SDS011;65794;51.836;5.002;2022-12-05T02:07:32;74.50;;;28.55;;
48765;SDS011;65794;51.836;5.002;2022-12-05T02:09:58;80.78;;;29.98;;
48765;SDS011;65794;51.836;5.002;2022-12-05T02:12:24;79.18;;;29.95;;
48765;SDS011;65794;51.836;5.002;2022-12-05T02:17:39;76.65;;;30.45;;
48765;SDS011;65794;51.836;5.002;2022-12-05T02:37:54;84.22;;;30.15;;
48765;SDS011;65794;51.836;5.002;2022-12-05T02:40:29;72.88;;;28.17;;
48765;SDS011;65794;51.836;5.002;2022-12-05T02:43:14;71.53;;;28.02;;
48765;SDS011;65794;51.836;5.002;2022-12-05T02:45:41;82.03;;;29.08;;
48765;SDS011;65794;51.836;5.002;2022-12-05T02:48:10;81.07;;;30.15;;
48765;SDS011;65794;51.836;5.002;2022-12-05T02:50:36;74.07;;;28.77;;
48765;SDS011;65794;51.836;5.002;2022-12-05T02:53:05;71.80;;;27.77;;
48765;SDS011;65794;51.836;5.002;2022-12-05T02:55:31;84.00;;;30.83;;
48765;SDS011;65794;51.836;5.002;2022-12-05T02:57:59;70.95;;;27.98;;
48765;SDS011;65794;51.836;5.002;2022-12-05T03:00:26;74.50;;;27.80;;
48765;SDS011;65794;51.836;5.002;2022-12-05T03:02:52;69.20;;;25.38;;
48765;SDS011;65794;51.836;5.002;2022-12-05T03:05:23;71.78;;;28.80;;
48765;SDS011;65794;51.836;5.002;2022-12-05T03:07:52;75.35;;;27.73;;
48765;SDS011;65794;51.836;5.002;2022-12-05T03:10:21;78.10;;;30.67;;
48765;SDS011;65794;51.836;5.002;2022-12-05T03:12:49;74.78;;;28.48;;
48765;SDS011;65794;51.836;5.002;2022-12-05T03:15:17;70.20;;;27.52;;
48765;SDS011;65794;51.836;5.002;2022-12-05T03:17:48;76.30;;;27.15;;
48765;SDS011;65794;51.836;5.002;2022-12-05T03:20:58;78.15;;;29.17;;
48765;SDS011;65794;51.836;5.002;2022-12-05T03:23:47;72.97;;;27.55;;
48765;SDS011;65794;51.836;5.002;2022-12-05T03:28:28;71.75;;;27.67;;
48765;SDS011;65794;51.836;5.002;2022-12-05T03:30:58;80.63;;;29.58;;
48765;SDS011;65794;51.836;5.002;2022-12-05T03:33:27;81.93;;;29.13;;
48765;SDS011;65794;51.836;5.002;2022-12-05T03:45:57;69.50;;;26.45;;
48765;SDS011;65794;51.836;5.002;2022-12-05T03:50:59;71.28;;;27.98;;
48765;SDS011;65794;51.836;5.002;2022-12-05T03:53:28;86.30;;;29.05;;
48765;SDS011;65794;51.836;5.002;2022-12-05T03:56:01;74.25;;;27.48;;
48765;SDS011;65794;51.836;5.002;2022-12-05T03:58:33;80.68;;;29.13;;
48765;SDS011;65794;51.836;5.002;2022-12-05T04:01:02;77.43;;;29.13;;
48765;SDS011;65794;51.836;5.002;2022-12-05T04:03:31;80.28;;;28.90;;
48765;SDS011;65794;51.836;5.002;2022-12-05T04:06:05;76.60;;;29.38;;
48765;SDS011;65794;51.836;5.002;2022-12-05T04:08:38;74.18;;;26.60;;
48765;SDS011;65794;51.836;5.002;2022-12-05T04:11:06;81.30;;;29.35;;
48765;SDS011;65794;51.836;5.002;2022-12-05T04:13:33;70.35;;;27.48;;
48765;SDS011;65794;51.836;5.002;2022-12-05T04:16:04;88.32;;;29.05;;
48765;SDS011;65794;51.836;5.002;2022-12-05T04:18:58;77.10;;;28.33;;
48765;SDS011;65794;51.836;5.002;2022-12-05T04:21:26;73.55;;;27.58;;
48765;SDS011;65794;51.836;5.002;2022-12-05T04:24:03;77.10;;;28.60;;
48765;SDS011;65794;51.836;5.002;2022-12-05T04:26:49;74.22;;;27.83;;
48765;SDS011;65794;51.836;5.002;2022-12-05T04:29:24;79.22;;;29.08;;
48765;SDS011;65794;51.836;5.002;2022-12-05T04:31:52;76.82;;;29.38;;
48765;SDS011;65794;51.836;5.002;2022-12-05T04:34:21;83.10;;;28.65;;
48765;SDS011;65794;51.836;5.002;2022-12-05T04:37:03;88.22;;;29.98;;
48765;SDS011;65794;51.836;5.002;2022-12-05T04:39:43;79.10;;;28.70;;
48765;SDS011;65794;51.836;5.002;2022-12-05T04:42:11;82.97;;;29.50;;
48765;SDS011;65794;51.836;5.002;2022-12-05T04:44:39;78.78;;;27.45;;
48765;SDS011;65794;51.836;5.002;2022-12-05T04:47:06;85.50;;;29.60;;
48765;SDS011;65794;51.836;5.002;2022-12-05T04:49:34;79.13;;;28.02;;
48765;SDS011;65794;51.836;5.002;2022-12-05T04:52:02;84.53;;;29.92;;
48765;SDS011;65794;51.836;5.002;2022-12-05T04:54:30;84.72;;;28.35;;
48765;SDS011;65794;51.836;5.002;2022-12-05T04:56:59;88.80;;;30.85;;
48765;SDS011;65794;51.836;5.002;2022-12-05T04:59:26;83.97;;;29.33;;
48765;SDS011;65794;51.836;5.002;2022-12-05T05:01:54;90.90;;;29.70;;
48765;SDS011;65794;51.836;5.002;2022-12-05T05:04:31;87.75;;;30.70;;
48765;SDS011;65794;51.836;5.002;2022-12-05T05:06:58;86.88;;;30.02;;
48765;SDS011;65794;51.836;5.002;2022-12-05T05:09:24;78.47;;;28.10;;
48765;SDS011;65794;51.836;5.002;2022-12-05T05:11:50;86.13;;;29.63;;
48765;SDS011;65794;51.836;5.002;2022-12-05T05:16:41;94.43;;;25.98;;
48765;SDS011;65794;51.836;5.002;2022-12-05T05:19:07;84.50;;;28.55;;
48765;SDS011;65794;51.836;5.002;2022-12-05T05:21:35;89.63;;;30.23;;
48765;SDS011;65794;51.836;5.002;2022-12-05T05:24:01;87.75;;;26.88;;
48765;SDS011;65794;51.836;5.002;2022-12-05T05:26:28;82.70;;;28.08;;
48765;SDS011;65794;51.836;5.002;2022-12-05T05:28:54;78.10;;;26.95;;
48765;SDS011;65794;51.836;5.002;2022-12-05T05:31:20;99.57;;;30.73;;
48765;SDS011;65794;51.836;5.002;2022-12-05T05:33:49;84.05;;;27.75;;
48765;SDS011;65794;51.836;5.002;2022-12-05T05:36:15;100.00;;;30.05;;
48765;SDS011;65794;51.836;5.002;2022-12-05T05:38:42;94.97;;;30.13;;
48765;SDS011;65794;51.836;5.002;2022-12-05T05:41:30;86.93;;;27.88;;
48765;SDS011;65794;51.836;5.002;2022-12-05T05:43:54;96.23;;;30.13;;
48765;SDS011;65794;51.836;5.002;2022-12-05T05:46:22;78.15;;;26.17;;
48765;SDS011;65794;51.836;5.002;2022-12-05T05:48:48;83.68;;;26.98;;
48765;SDS011;65794;51.836;5.002;2022-12-05T05:51:14;87.75;;;27.92;;
48765;SDS011;65794;51.836;5.002;2022-12-05T05:53:41;88.57;;;28.92;;
48765;SDS011;65794;51.836;5.002;2022-12-05T05:56:08;77.97;;;26.50;;
48765;SDS011;65794;51.836;5.002;2022-12-05T05:58:33;79.63;;;26.20;;
48765;SDS011;65794;51.836;5.002;2022-12-05T06:01:10;89.90;;;28.52;;
48765;SDS011;65794;51.836;5.002;2022-12-05T06:03:37;93.93;;;28.17;;
48765;SDS011;65794;51.836;5.002;2022-12-05T06:06:04;74.93;;;25.80;;
48765;SDS011;65794;51.836;5.002;2022-12-05T06:08:30;88.25;;;27.52;;
48765;SDS011;65794;51.836;5.002;2022-12-05T06:10:56;89.88;;;27.30;;
48765;SDS011;65794;51.836;5.002;2022-12-05T06:13:22;104.93;;;28.58;;
48765;SDS011;65794;51.836;5.002;2022-12-05T06:15:48;103.15;;;29.45;;
48765;SDS011;65794;51.836;5.002;2022-12-05T06:18:16;91.18;;;26.92;;
48765;SDS011;65794;51.836;5.002;2022-12-05T06:20:50;79.10;;;26.77;;
48765;SDS011;65794;51.836;5.002;2022-12-05T06:23:15;87.72;;;26.85;;
48765;SDS011;65794;51.836;5.002;2022-12-05T06:25:45;84.70;;;27.27;;
48765;SDS011;65794;51.836;5.002;2022-12-05T06:28:11;91.25;;;28.83;;
48765;SDS011;65794;51.836;5.002;2022-12-05T06:30:37;79.38;;;26.83;;
48765;SDS011;65794;51.836;5.002;2022-12-05T06:33:03;81.43;;;27.95;;
48765;SDS011;65794;51.836;5.002;2022-12-05T06:35:28;95.35;;;27.15;;
48765;SDS011;65794;51.836;5.002;2022-12-05T06:37:54;93.35;;;28.30;;
48765;SDS011;65794;51.836;5.002;2022-12-05T06:40:20;82.90;;;26.00;;
48765;SDS011;65794;51.836;5.002;2022-12-05T06:42:46;86.55;;;27.88;;
48765;SDS011;65794;51.836;5.002;2022-12-05T06:45:12;92.90;;;28.02;;
48765;SDS011;65794;51.836;5.002;2022-12-05T06:50:03;99.13;;;25.90;;
48765;SDS011;65794;51.836;5.002;2022-12-05T06:52:29;81.35;;;27.65;;
48765;SDS011;65794;51.836;5.002;2022-12-05T06:54:55;87.35;;;26.30;;
48765;SDS011;65794;51.836;5.002;2022-12-05T06:57:20;86.85;;;26.67;;
48765;SDS011;65794;51.836;5.002;2022-12-05T06:59:46;99.78;;;27.42;;
48765;SDS011;65794;51.836;5.002;2022-12-05T07:02:12;98.65;;;28.25;;
48765;SDS011;65794;51.836;5.002;2022-12-05T07:04:38;90.25;;;28.20;;
48765;SDS011;65794;51.836;5.002;2022-12-05T07:07:03;85.13;;;27.20;;
48765;SDS011;65794;51.836;5.002;2022-12-05T07:09:29;82.78;;;26.40;;
48765;SDS011;65794;51.836;5.002;2022-12-05T07:12:11;89.93;;;27.65;;
48765;SDS011;65794;51.836;5.002;2022-12-05T07:14:37;82.50;;;28.02;;
48765;SDS011;65794;51.836;5.002;2022-12-05T07:17:02;79.32;;;26.20;;
48765;SDS011;65794;51.836;5.002;2022-12-05T07:19:28;108.53;;;28.63;;
48765;SDS011;65794;51.836;5.002;2022-12-05T07:24:20;76.63;;;24.70;;
48765;SDS011;65794;51.836;5.002;2022-12-05T07:26:45;89.55;;;26.98;;
48765;SDS011;65794;51.836;5.002;2022-12-05T07:29:11;85.68;;;26.52;;
48765;SDS011;65794;51.836;5.002;2022-12-05T07:31:37;82.75;;;26.40;;
48765;SDS011;65794;51.836;5.002;2022-12-05T07:34:02;89.13;;;29.33;;
48765;SDS011;65794;51.836;5.002;2022-12-05T07:36:28;97.03;;;28.55;;
48765;SDS011;65794;51.836;5.002;2022-12-05T07:38:55;90.53;;;27.95;;
48765;SDS011;65794;51.836;5.002;2022-12-05T07:41:24;104.88;;;30.20;;
48765;SDS011;65794;51.836;5.002;2022-12-05T07:43:50;101.03;;;29.15;;
48765;SDS011;65794;51.836;5.002;2022-12-05T07:46:17;89.28;;;27.23;;
48765;SDS011;65794;51.836;5.002;2022-12-05T07:48:43;97.53;;;27.88;;
48765;SDS011;65794;51.836;5.002;2022-12-05T07:51:09;100.25;;;28.70;;
48765;SDS011;65794;51.836;5.002;2022-12-05T07:53:35;94.70;;;27.67;;
48765;SDS011;65794;51.836;5.002;2022-12-05T07:56:02;97.82;;;28.77;;
48765;SDS011;65794;51.836;5.002;2022-12-05T07:58:28;99.93;;;29.13;;
48765;SDS011;65794;51.836;5.002;2022-12-05T08:00:54;91.68;;;28.73;;
48765;SDS011;65794;51.836;5.002;2022-12-05T08:03:20;86.28;;;26.75;;
48765;SDS011;65794;51.836;5.002;2022-12-05T08:05:46;93.32;;;29.30;;
48765;SDS011;65794;51.836;5.002;2022-12-05T08:08:12;98.85;;;30.02;;
48765;SDS011;65794;51.836;5.002;2022-12-05T08:10:38;94.90;;;28.95;;
48765;SDS011;65794;51.836;5.002;2022-12-05T08:13:03;95.05;;;28.08;;
48765;SDS011;65794;51.836;5.002;2022-12-05T08:15:29;100.63;;;29.10;;
48765;SDS011;65794;51.836;5.002;2022-12-05T08:17:58;101.22;;;29.75;;
48765;SDS011;65794;51.836;5.002;2022-12-05T08:20:24;104.53;;;30.40;;
48765;SDS011;65794;51.836;5.002;2022-12-05T08:22:50;102.70;;;29.35;;
48765;SDS011;65794;51.836;5.002;2022-12-05T08:25:16;100.22;;;28.80;;
48765;SDS011;65794;51.836;5.002;2022-12-05T08:27:42;91.68;;;29.25;;
48765;SDS011;65794;51.836;5.002;2022-12-05T08:30:08;93.93;;;28.33;;
48765;SDS011;65794;51.836;5.002;2022-12-05T08:32:33;100.38;;;29.92;;
48765;SDS011;65794;51.836;5.002;2022-12-05T08:34:59;99.68;;;28.35;;
48765;SDS011;65794;51.836;5.002;2022-12-05T08:37:25;98.88;;;29.65;;
48765;SDS011;65794;51.836;5.002;2022-12-05T08:39:51;88.70;;;27.15;;
48765;SDS011;65794;51.836;5.002;2022-12-05T08:42:16;95.75;;;29.17;;
48765;SDS011;65794;51.836;5.002;2022-12-05T08:44:42;94.85;;;28.65;;
48765;SDS011;65794;51.836;5.002;2022-12-05T08:47:08;103.90;;;28.95;;
48765;SDS011;65794;51.836;5.002;2022-12-05T08:49:33;99.85;;;29.27;;
48765;SDS011;65794;51.836;5.002;2022-12-05T08:51:59;99.30;;;30.23;;
48765;SDS011;65794;51.836;5.002;2022-12-05T08:54:25;108.22;;;29.30;;
48765;SDS011;65794;51.836;5.002;2022-12-05T08:56:51;106.35;;;29.67;;
48765;SDS011;65794;51.836;5.002;2022-12-05T08:59:17;93.70;;;28.80;;
48765;SDS011;65794;51.836;5.002;2022-12-05T09:01:42;93.25;;;28.85;;
48765;SDS011;65794;51.836;5.002;2022-12-05T09:06:34;96.53;;;27.52;;
48765;SDS011;65794;51.836;5.002;2022-12-05T09:09:04;98.10;;;29.42;;
48765;SDS011;65794;51.836;5.002;2022-12-05T09:11:31;94.35;;;29.05;;
48765;SDS011;65794;51.836;5.002;2022-12-05T09:13:57;96.57;;;30.15;;
48765;SDS011;65794;51.836;5.002;2022-12-05T09:16:27;99.32;;;28.98;;
48765;SDS011;65794;51.836;5.002;2022-12-05T09:18:56;96.07;;;30.30;;
48765;SDS011;65794;51.836;5.002;2022-12-05T09:21:23;103.47;;;29.17;;
48765;SDS011;65794;51.836;5.002;2022-12-05T09:23:50;89.55;;;27.17;;
48765;SDS011;65794;51.836;5.002;2022-12-05T09:26:16;103.53;;;29.58;;
48765;SDS011;65794;51.836;5.002;2022-12-05T09:28:42;95.85;;;28.92;;
48765;SDS011;65794;51.836;5.002;2022-12-05T09:31:09;91.28;;;28.40;;
48765;SDS011;65794;51.836;5.002;2022-12-05T09:33:36;90.65;;;29.00;;
48765;SDS011;65794;51.836;5.002;2022-12-05T09:36:05;96.20;;;29.00;;
48765;SDS011;65794;51.836;5.002;2022-12-05T09:38:31;94.30;;;28.30;;
48765;SDS011;65794;51.836;5.002;2022-12-05T09:41:06;111.28;;;30.38;;
48765;SDS011;65794;51.836;5.002;2022-12-05T09:46:27;97.70;;;28.65;;
48765;SDS011;65794;51.836;5.002;2022-12-05T09:48:53;116.93;;;31.95;;
48765;SDS011;65794;51.836;5.002;2022-12-05T09:51:19;97.75;;;28.73;;
48765;SDS011;65794;51.836;5.002;2022-12-05T09:56:12;98.82;;;27.70;;
48765;SDS011;65794;51.836;5.002;2022-12-05T10:06:22;91.80;;;27.95;;
48765;SDS011;65794;51.836;5.002;2022-12-05T10:11:33;78.38;;;26.10;;
48765;SDS011;65794;51.836;5.002;2022-12-05T10:14:22;79.63;;;26.00;;
48765;SDS011;65794;51.836;5.002;2022-12-05T10:16:51;84.30;;;23.92;;
48765;SDS011;65794;51.836;5.002;2022-12-05T10:21:54;76.43;;;25.60;;
48765;SDS011;65794;51.836;5.002;2022-12-05T10:24:32;88.65;;;26.15;;
48765;SDS011;65794;51.836;5.002;2022-12-05T10:27:03;83.15;;;24.70;;
48765;SDS011;65794;51.836;5.002;2022-12-05T10:34:50;86.63;;;24.45;;
48765;SDS011;65794;51.836;5.002;2022-12-05T10:37:19;86.93;;;26.13;;
48765;SDS011;65794;51.836;5.002;2022-12-05T10:39:46;88.00;;;26.77;;
48765;SDS011;65794;51.836;5.002;2022-12-05T10:42:24;66.65;;;23.70;;
48765;SDS011;65794;51.836;5.002;2022-12-05T10:44:54;89.13;;;25.95;;
48765;SDS011;65794;51.836;5.002;2022-12-05T10:47:20;88.57;;;26.60;;
48765;SDS011;65794;51.836;5.002;2022-12-05T10:49:46;86.45;;;26.73;;
48765;SDS011;65794;51.836;5.002;2022-12-05T10:54:40;77.78;;;24.58;;
48765;SDS011;65794;51.836;5.002;2022-12-05T10:57:24;84.80;;;25.17;;
48765;SDS011;65794;51.836;5.002;2022-12-05T10:59:50;73.65;;;25.70;;
48765;SDS011;65794;51.836;5.002;2022-12-05T11:02:27;84.43;;;26.77;;
48765;SDS011;65794;51.836;5.002;2022-12-05T11:04:54;80.55;;;24.50;;
48765;SDS011;65794;51.836;5.002;2022-12-05T11:09:49;73.75;;;24.85;;
48765;SDS011;65794;51.836;5.002;2022-12-05T11:12:16;76.55;;;26.02;;
48765;SDS011;65794;51.836;5.002;2022-12-05T11:14:53;75.50;;;25.20;;
48765;SDS011;65794;51.836;5.002;2022-12-05T11:17:24;70.63;;;23.98;;
48765;SDS011;65794;51.836;5.002;2022-12-05T11:19:50;74.78;;;24.90;;
48765;SDS011;65794;51.836;5.002;2022-12-05T11:22:16;77.65;;;24.30;;
48765;SDS011;65794;51.836;5.002;2022-12-05T11:24:42;78.18;;;24.98;;
48765;SDS011;65794;51.836;5.002;2022-12-05T11:30:16;67.93;;;23.00;;
48765;SDS011;65794;51.836;5.002;2022-12-05T11:32:43;71.57;;;22.83;;
48765;SDS011;65794;51.836;5.002;2022-12-05T11:40:11;67.57;;;22.30;;
48765;SDS011;65794;51.836;5.002;2022-12-05T11:42:53;67.18;;;21.77;;
48765;SDS011;65794;51.836;5.002;2022-12-05T11:48:36;64.70;;;21.67;;
48765;SDS011;65794;51.836;5.002;2022-12-05T11:50:48;61.05;;;21.08;;
48765;SDS011;65794;51.836;5.002;2022-12-05T11:53:20;61.10;;;19.73;;
48765;SDS011;65794;51.836;5.002;2022-12-05T12:13:57;64.07;;;20.35;;
48765;SDS011;65794;51.836;5.002;2022-12-05T12:19:00;56.47;;;18.97;;
48765;SDS011;65794;51.836;5.002;2022-12-05T12:21:50;53.72;;;19.30;;
48765;SDS011;65794;51.836;5.002;2022-12-05T12:32:10;59.95;;;19.38;;
48765;SDS011;65794;51.836;5.002;2022-12-05T12:42:22;42.80;;;16.02;;
48765;SDS011;65794;51.836;5.002;2022-12-05T12:47:33;35.72;;;13.82;;
48765;SDS011;65794;51.836;5.002;2022-12-05T12:50:05;38.10;;;13.88;;
48765;SDS011;65794;51.836;5.002;2022-12-05T12:52:44;38.47;;;14.38;;
48765;SDS011;65794;51.836;5.002;2022-12-05T12:58:12;25.52;;;10.00;;
48765;SDS011;65794;51.836;5.002;2022-12-05T13:03:21;18.38;;;7.82;;
48765;SDS011;65794;51.836;5.002;2022-12-05T13:08:19;15.52;;;6.78;;
48765;SDS011;65794;51.836;5.002;2022-12-05T13:10:48;17.42;;;7.00;;
48765;SDS011;65794;51.836;5.002;2022-12-05T13:13:27;18.40;;;6.95;;
48765;SDS011;65794;51.836;5.002;2022-12-05T13:15:56;22.58;;;7.30;;
48765;SDS011;65794;51.836;5.002;2022-12-05T13:18:23;19.13;;;6.78;;
48765;SDS011;65794;51.836;5.002;2022-12-05T13:21:13;21.83;;;6.68;;
48765;SDS011;65794;51.836;5.002;2022-12-05T13:23:40;21.90;;;7.68;;
48765;SDS011;65794;51.836;5.002;2022-12-05T13:26:08;17.08;;;7.20;;
48765;SDS011;65794;51.836;5.002;2022-12-05T13:28:52;20.83;;;7.72;;
48765;SDS011;65794;51.836;5.002;2022-12-05T13:31:18;18.80;;;8.13;;
48765;SDS011;65794;51.836;5.002;2022-12-05T13:33:45;19.77;;;8.32;;
48765;SDS011;65794;51.836;5.002;2022-12-05T13:36:12;22.45;;;7.97;;
48765;SDS011;65794;51.836;5.002;2022-12-05T13:38:59;18.75;;;7.47;;
48765;SDS011;65794;51.836;5.002;2022-12-05T13:41:45;18.92;;;7.70;;
48765;SDS011;65794;51.836;5.002;2022-12-05T13:44:35;18.48;;;7.72;;
48765;SDS011;65794;51.836;5.002;2022-12-05T13:47:01;19.65;;;7.55;;
48765;SDS011;65794;51.836;5.002;2022-12-05T13:49:35;16.20;;;6.82;;
48765;SDS011;65794;51.836;5.002;2022-12-05T13:52:07;15.63;;;6.72;;
48765;SDS011;65794;51.836;5.002;2022-12-05T13:54:33;13.88;;;6.60;;
48765;SDS011;65794;51.836;5.002;2022-12-05T13:57:00;20.90;;;7.47;;
48765;SDS011;65794;51.836;5.002;2022-12-05T14:02:57;16.40;;;7.15;;
48765;SDS011;65794;51.836;5.002;2022-12-05T14:04:57;16.93;;;7.33;;
48765;SDS011;65794;51.836;5.002;2022-12-05T14:07:36;20.95;;;7.68;;
48765;SDS011;65794;51.836;5.002;2022-12-05T14:10:03;16.88;;;7.00;;
48765;SDS011;65794;51.836;5.002;2022-12-05T14:12:29;17.67;;;6.68;;
48765;SDS011;65794;51.836;5.002;2022-12-05T14:17:22;25.70;;;7.82;;
48765;SDS011;65794;51.836;5.002;2022-12-05T14:22:37;22.45;;;7.50;;
48765;SDS011;65794;51.836;5.002;2022-12-05T14:27:41;20.30;;;7.22;;
48765;SDS011;65794;51.836;5.002;2022-12-05T14:30:21;24.55;;;7.15;;
48765;SDS011;65794;51.836;5.002;2022-12-05T14:32:48;20.55;;;7.10;;
48765;SDS011;65794;51.836;5.002;2022-12-05T14:37:41;15.40;;;6.32;;
48765;SDS011;65794;51.836;5.002;2022-12-05T14:47:49;14.80;;;6.22;;
48765;SDS011;65794;51.836;5.002;2022-12-05T14:53:34;14.80;;;6.18;;
48765;SDS011;65794;51.836;5.002;2022-12-05T14:55:34;16.80;;;6.60;;
48765;SDS011;65794;51.836;5.002;2022-12-05T14:58:00;16.33;;;6.40;;
48765;SDS011;65794;51.836;5.002;2022-12-05T15:00:27;11.60;;;5.03;;
48765;SDS011;65794;51.836;5.002;2022-12-05T15:02:52;17.83;;;6.72;;
48765;SDS011;65794;51.836;5.002;2022-12-05T15:05:21;20.95;;;6.40;;
48765;SDS011;65794;51.836;5.002;2022-12-05T15:07:48;16.15;;;5.78;;
48765;SDS011;65794;51.836;5.002;2022-12-05T15:10:16;15.90;;;6.40;;
48765;SDS011;65794;51.836;5.002;2022-12-05T15:12:56;15.40;;;6.07;;
48765;SDS011;65794;51.836;5.002;2022-12-05T15:15:36;15.18;;;6.25;;
48765;SDS011;65794;51.836;5.002;2022-12-05T15:18:08;14.63;;;5.70;;
48765;SDS011;65794;51.836;5.002;2022-12-05T15:23:02;15.88;;;5.63;;
48765;SDS011;65794;51.836;5.002;2022-12-05T15:25:29;12.20;;;5.13;;
48765;SDS011;65794;51.836;5.002;2022-12-05T15:28:04;19.90;;;5.65;;
48765;SDS011;65794;51.836;5.002;2022-12-05T15:30:30;13.82;;;5.75;;
48765;SDS011;65794;51.836;5.002;2022-12-05T15:32:57;15.02;;;5.93;;
48765;SDS011;65794;51.836;5.002;2022-12-05T15:35:36;15.27;;;5.32;;
48765;SDS011;65794;51.836;5.002;2022-12-05T15:38:19;15.45;;;6.28;;
48765;SDS011;65794;51.836;5.002;2022-12-05T15:40:47;18.30;;;5.97;;
48765;SDS011;65794;51.836;5.002;2022-12-05T15:45:48;14.07;;;5.60;;
48765;SDS011;65794;51.836;5.002;2022-12-05T15:48:14;13.32;;;5.13;;
48765;SDS011;65794;51.836;5.002;2022-12-05T15:50:41;12.73;;;4.80;;
48765;SDS011;65794;51.836;5.002;2022-12-05T15:53:18;13.00;;;4.85;;
48765;SDS011;65794;51.836;5.002;2022-12-05T16:00:44;12.85;;;4.55;;
48765;SDS011;65794;51.836;5.002;2022-12-05T16:03:14;11.65;;;4.95;;
48765;SDS011;65794;51.836;5.002;2022-12-05T16:08:12;11.23;;;5.43;;
48765;SDS011;65794;51.836;5.002;2022-12-05T16:10:38;13.65;;;5.75;;
48765;SDS011;65794;51.836;5.002;2022-12-05T16:13:04;10.82;;;4.70;;
48765;SDS011;65794;51.836;5.002;2022-12-05T16:15:31;10.98;;;5.10;;
48765;SDS011;65794;51.836;5.002;2022-12-05T16:17:59;15.85;;;5.78;;
48765;SDS011;65794;51.836;5.002;2022-12-05T16:20:32;11.57;;;5.30;;
48765;SDS011;65794;51.836;5.002;2022-12-05T16:23:02;17.67;;;6.30;;
48765;SDS011;65794;51.836;5.002;2022-12-05T16:25:31;20.17;;;6.40;;
48765;SDS011;65794;51.836;5.002;2022-12-05T16:28:01;15.82;;;6.07;;
48765;SDS011;65794;51.836;5.002;2022-12-05T16:30:27;21.08;;;6.40;;
48765;SDS011;65794;51.836;5.002;2022-12-05T16:32:58;19.75;;;6.72;;
48765;SDS011;65794;51.836;5.002;2022-12-05T16:38:29;26.10;;;11.25;;
48765;SDS011;65794;51.836;5.002;2022-12-05T16:45:43;16.60;;;8.05;;
48765;SDS011;65794;51.836;5.002;2022-12-05T16:48:22;18.95;;;8.98;;
48765;SDS011;65794;51.836;5.002;2022-12-05T16:50:49;20.00;;;9.18;;
48765;SDS011;65794;51.836;5.002;2022-12-05T16:53:20;19.00;;;8.63;;
48765;SDS011;65794;51.836;5.002;2022-12-05T16:55:46;26.02;;;9.23;;
48765;SDS011;65794;51.836;5.002;2022-12-05T16:58:30;20.98;;;9.00;;
48765;SDS011;65794;51.836;5.002;2022-12-05T17:00:58;16.58;;;7.78;;
48765;SDS011;65794;51.836;5.002;2022-12-05T17:03:26;18.35;;;8.18;;
48765;SDS011;65794;51.836;5.002;2022-12-05T17:05:53;21.67;;;8.63;;
48765;SDS011;65794;51.836;5.002;2022-12-05T17:08:19;24.90;;;8.85;;
48765;SDS011;65794;51.836;5.002;2022-12-05T17:10:46;26.13;;;7.93;;
48765;SDS011;65794;51.836;5.002;2022-12-05T17:13:13;20.98;;;8.45;;
48765;SDS011;65794;51.836;5.002;2022-12-05T17:15:39;18.52;;;7.53;;
48765;SDS011;65794;51.836;5.002;2022-12-05T17:18:06;19.58;;;7.68;;
48765;SDS011;65794;51.836;5.002;2022-12-05T17:20:36;18.00;;;7.80;;
48765;SDS011;65794;51.836;5.002;2022-12-05T17:23:02;25.33;;;8.70;;
48765;SDS011;65794;51.836;5.002;2022-12-05T17:25:33;21.15;;;8.73;;
48765;SDS011;65794;51.836;5.002;2022-12-05T17:28:00;22.95;;;10.43;;
48765;SDS011;65794;51.836;5.002;2022-12-05T17:30:26;24.02;;;9.55;;